CES1732 ZUNZ-ZUGZ
Flight info
| Callsign | CES1732 |
|---|---|
| Flight time | N/A |
| Altitude | 33100 |
| Route | GOMON W261 OMGEV B213 DOBSO |
| Aircraft | A319/L-SDE3FGHIRWY/LB1D1 |
Departure
| Time | 2026-04-14 12:51 |
|---|---|
| Airport | Nyingchi Mainling Airport (ZUNZ) |
Arrival
| Time | N/A |
|---|---|
| Airport | Garze Gesar Airport (ZUGZ) |
| Time | Latitude | Longitude | Altitude | Speed | Heading |
|---|---|---|---|---|---|
| 2026-04-14 12:50 | 29.58160 | 94.43020 | 19812 ft | 307 kts | 319° |
| 2026-04-14 12:51 | 29.59642 | 94.41318 | 20498 ft | 299 kts | 302° |
| 2026-04-14 12:51 | 29.60929 | 94.39434 | 21214 ft | 301 kts | 308° |
| 2026-04-14 12:51 | 29.62454 | 94.37789 | 21929 ft | 303 kts | 317° |
| 2026-04-14 12:51 | 29.64223 | 94.36436 | 22637 ft | 307 kts | 327° |
| 2026-04-14 12:52 | 29.66172 | 94.35411 | 23345 ft | 309 kts | 330° |
| 2026-04-14 12:52 | 29.68057 | 94.34264 | 23952 ft | 305 kts | 322° |
| 2026-04-14 12:52 | 29.69757 | 94.32833 | 24495 ft | 303 kts | 316° |
| 2026-04-14 12:52 | 29.71541 | 94.31434 | 24808 ft | 318 kts | 326° |
| 2026-04-14 12:53 | 29.73602 | 94.30402 | 25245 ft | 329 kts | 337° |
| 2026-04-14 12:53 | 29.75878 | 94.29862 | 25762 ft | 340 kts | 349° |
| 2026-04-14 12:53 | 29.78271 | 94.29877 | 26302 ft | 350 kts | 0° |
| 2026-04-14 12:53 | 29.80690 | 94.30472 | 26798 ft | 362 kts | 12° |
| 2026-04-14 12:54 | 29.83017 | 94.31682 | 27215 ft | 373 kts | 25° |
| 2026-04-14 12:54 | 29.85112 | 94.33511 | 27693 ft | 384 kts | 40° |
| 2026-04-14 12:54 | 29.86840 | 94.35899 | 28188 ft | 394 kts | 54° |
| 2026-04-14 12:54 | 29.88073 | 94.38756 | 28638 ft | 403 kts | 69° |
| 2026-04-14 12:55 | 29.88740 | 94.41914 | 29098 ft | 408 kts | 78° |
| 2026-04-14 12:55 | 29.89277 | 94.45141 | 29550 ft | 412 kts | 78° |
| 2026-04-14 12:55 | 29.89828 | 94.48388 | 30006 ft | 415 kts | 77° |
| 2026-04-14 12:55 | 29.90387 | 94.51663 | 30397 ft | 418 kts | 77° |
| 2026-04-14 12:56 | 29.91195 | 94.54903 | 30558 ft | 425 kts | 63° |
| 2026-04-14 12:56 | 29.92512 | 94.57992 | 30688 ft | 435 kts | 60° |
| 2026-04-14 12:56 | 29.93893 | 94.61145 | 30809 ft | 446 kts | 60° |
| 2026-04-14 12:56 | 29.95309 | 94.64365 | 30930 ft | 456 kts | 60° |
| 2026-04-14 12:57 | 29.96759 | 94.67656 | 31054 ft | 465 kts | 60° |
| 2026-04-14 12:57 | 29.99730 | 94.74453 | 31301 ft | 483 kts | 60° |
| 2026-04-14 12:58 | 30.02285 | 94.80346 | 31507 ft | 497 kts | 61° |
| 2026-04-14 12:58 | 30.03841 | 94.83938 | 31704 ft | 504 kts | 61° |
| 2026-04-14 12:58 | 30.05406 | 94.87561 | 32007 ft | 505 kts | 61° |
| 2026-04-14 12:58 | 30.06972 | 94.91191 | 32436 ft | 504 kts | 61° |
| 2026-04-14 12:59 | 30.08616 | 94.94755 | 32838 ft | 502 kts | 55° |
| 2026-04-14 12:59 | 30.10640 | 94.98017 | 33057 ft | 498 kts | 45° |
| 2026-04-14 12:59 | 30.13015 | 95.00862 | 33096 ft | 487 kts | 37° |
| 2026-04-14 13:00 | 30.18098 | 95.05989 | 33099 ft | 484 kts | 36° |
| 2026-04-14 13:00 | 30.23151 | 95.11135 | 33099 ft | 484 kts | 37° |
| 2026-04-14 13:01 | 30.28191 | 95.16305 | 33101 ft | 484 kts | 37° |
| 2026-04-14 13:01 | 30.33239 | 95.21460 | 33081 ft | 484 kts | 37° |
| 2026-04-14 13:02 | 30.38288 | 95.26619 | 33070 ft | 484 kts | 37° |
| 2026-04-14 13:02 | 30.43340 | 95.31789 | 33052 ft | 485 kts | 37° |